createdAt,value
2023-10-16T00:01:16.391Z,49.20
2023-10-16T00:02:57.794Z,48.40
2023-10-16T00:04:39.277Z,48.28
2023-10-16T00:06:20.682Z,47.63
2023-10-16T00:08:02.049Z,48.02
2023-10-16T00:09:43.444Z,47.71
2023-10-16T00:11:24.838Z,47.51
2023-10-16T00:13:06.178Z,47.51
2023-10-16T00:14:47.525Z,47.55
2023-10-16T00:16:28.900Z,47.00
2023-10-16T00:18:11.477Z,47.02
2023-10-16T00:19:52.820Z,47.07
2023-10-16T00:21:34.211Z,46.79
2023-10-16T00:23:15.576Z,47.14
2023-10-16T00:24:57.134Z,46.91
2023-10-16T00:26:38.581Z,46.92
2023-10-16T00:28:19.933Z,47.10
2023-10-16T00:30:01.391Z,46.62
2023-10-16T00:31:42.824Z,46.51
2023-10-16T00:33:24.169Z,46.52
2023-10-16T00:35:05.518Z,46.50
2023-10-16T00:36:46.893Z,45.98
2023-10-16T00:38:28.289Z,46.06
2023-10-16T00:40:09.741Z,45.83
2023-10-16T00:41:51.137Z,46.24
2023-10-16T00:43:32.485Z,45.58
2023-10-16T00:45:13.916Z,45.11
2023-10-16T00:46:55.416Z,45.77
2023-10-16T00:48:36.918Z,46.47
2023-10-16T00:50:18.278Z,45.60
2023-10-16T00:51:59.667Z,45.69
2023-10-16T00:53:41.057Z,46.04
2023-10-16T00:55:22.408Z,45.87
2023-10-16T00:57:03.745Z,45.51
2023-10-16T00:58:45.095Z,44.35
2023-10-16T01:00:26.457Z,43.56
2023-10-16T01:02:07.860Z,44.39
2023-10-16T01:03:49.330Z,43.27
2023-10-16T01:05:30.786Z,42.64
2023-10-16T01:07:12.211Z,42.62
2023-10-16T01:08:53.653Z,44.26
2023-10-16T01:10:35.116Z,45.22
2023-10-16T01:12:16.556Z,44.39
2023-10-16T01:13:57.982Z,43.86
2023-10-16T01:15:39.307Z,43.36
2023-10-16T01:17:20.698Z,42.67
2023-10-16T01:19:02.175Z,42.50
2023-10-16T01:20:43.556Z,41.29
2023-10-16T01:22:24.942Z,42.09
2023-10-16T01:24:06.327Z,41.95
2023-10-16T01:25:47.707Z,41.72
2023-10-16T01:27:29.310Z,42.12
2023-10-16T01:29:11.355Z,41.53
2023-10-16T01:30:53.367Z,40.81
2023-10-16T01:32:34.860Z,40.33
2023-10-16T01:34:16.298Z,39.59
2023-10-16T01:35:57.650Z,40.22
2023-10-16T01:37:39.012Z,40.43
2023-10-16T01:39:20.426Z,39.77
2023-10-16T01:41:01.842Z,39.09
2023-10-16T01:42:43.363Z,38.86
2023-10-16T01:44:25.137Z,38.15
2023-10-16T01:46:06.800Z,37.50
2023-10-16T01:47:48.283Z,39.23
2023-10-16T01:49:29.658Z,36.38
2023-10-16T01:51:11.048Z,35.61
2023-10-16T01:52:52.451Z,38.28
2023-10-16T01:54:34.874Z,39.85
2023-10-16T01:56:16.306Z,40.99
2023-10-16T01:57:57.790Z,40.37
2023-10-16T01:59:39.175Z,40.56
2023-10-16T02:01:20.701Z,38.39
2023-10-16T02:03:02.204Z,41.28
2023-10-16T02:04:44.051Z,37.38
2023-10-16T02:06:25.605Z,37.80
2023-10-16T02:08:06.981Z,37.80
2023-10-16T02:09:48.377Z,39.08
2023-10-16T02:11:29.765Z,38.79
2023-10-16T02:13:11.151Z,37.56
2023-10-16T02:14:52.483Z,37.01
2023-10-16T02:16:33.911Z,37.25
2023-10-16T02:18:15.325Z,37.44
2023-10-16T02:19:56.722Z,36.58
2023-10-16T02:21:38.147Z,35.98
2023-10-16T02:23:19.550Z,35.82
2023-10-16T02:25:00.911Z,35.41
2023-10-16T02:26:42.330Z,34.97
2023-10-16T02:28:23.687Z,35.73
2023-10-16T02:30:05.047Z,35.17
2023-10-16T02:31:46.440Z,36.31
2023-10-16T02:33:27.871Z,36.22
2023-10-16T02:35:09.369Z,36.80
2023-10-16T02:36:50.824Z,35.99
2023-10-16T02:38:32.209Z,33.97
2023-10-16T02:40:13.545Z,34.65
2023-10-16T02:41:54.929Z,33.82
2023-10-16T02:43:36.317Z,35.80
2023-10-16T02:45:17.716Z,34.53
2023-10-16T02:46:59.283Z,35.89
2023-10-16T02:48:40.673Z,35.01
2023-10-16T02:50:22.065Z,35.05
2023-10-16T02:52:03.582Z,34.40
2023-10-16T02:53:44.999Z,35.92
2023-10-16T02:55:26.328Z,34.63
2023-10-16T02:57:07.741Z,35.88
2023-10-16T02:58:49.143Z,35.06
2023-10-16T03:00:30.588Z,34.82
2023-10-16T03:02:12.017Z,35.28
2023-10-16T03:03:53.435Z,34.53
2023-10-16T03:05:34.916Z,34.52
2023-10-16T03:07:16.298Z,36.35
2023-10-16T03:08:57.641Z,36.56
2023-10-16T03:10:39.048Z,35.78
2023-10-16T03:12:20.443Z,35.50
2023-10-16T03:14:01.786Z,35.31
2023-10-16T03:15:43.227Z,34.22
2023-10-16T03:17:24.601Z,34.08
2023-10-16T03:19:05.992Z,34.58
2023-10-16T03:20:47.411Z,34.72
2023-10-16T03:22:28.805Z,34.92
2023-10-16T03:24:10.186Z,35.29
2023-10-16T03:25:51.609Z,35.02
2023-10-16T03:27:33.052Z,35.53
2023-10-16T03:29:14.449Z,35.55
2023-10-16T03:30:55.873Z,33.80
2023-10-16T03:32:37.371Z,35.54
2023-10-16T03:34:18.800Z,34.66
2023-10-16T03:36:00.179Z,35.22
2023-10-16T03:37:41.582Z,35.34
2023-10-16T03:39:22.967Z,34.90
2023-10-16T03:41:04.431Z,34.95
2023-10-16T03:42:45.812Z,34.40
2023-10-16T03:44:27.398Z,32.80
2023-10-16T03:46:09.069Z,32.48
2023-10-16T03:47:50.528Z,31.31
2023-10-16T03:49:31.908Z,33.09
2023-10-16T03:51:13.262Z,33.84
2023-10-16T03:52:54.639Z,34.55
2023-10-16T03:54:36.079Z,34.81
2023-10-16T03:56:17.501Z,34.48
2023-10-16T03:57:58.897Z,34.00
2023-10-16T03:59:40.306Z,34.22
2023-10-16T04:01:21.664Z,35.67
2023-10-16T04:03:03.043Z,34.66
2023-10-16T04:04:44.536Z,33.67
2023-10-16T04:06:25.927Z,34.03
2023-10-16T04:08:07.284Z,34.45
2023-10-16T04:09:48.722Z,33.63
2023-10-16T04:11:30.057Z,32.28
2023-10-16T04:13:11.496Z,33.03
2023-10-16T04:14:52.882Z,34.51
2023-10-16T04:16:34.246Z,34.79
2023-10-16T04:18:15.600Z,34.40
2023-10-16T04:19:56.959Z,34.35
2023-10-16T04:21:38.443Z,34.75
2023-10-16T04:23:19.963Z,34.83
2023-10-16T04:25:01.353Z,35.84
2023-10-16T04:26:42.699Z,35.59
2023-10-16T04:28:24.042Z,35.59
2023-10-16T04:30:05.482Z,35.63
2023-10-16T04:31:47.036Z,33.90
2023-10-16T04:33:28.638Z,34.59
2023-10-16T04:35:10.018Z,33.11
2023-10-16T04:36:51.387Z,33.96
2023-10-16T04:38:33.046Z,34.91
2023-10-16T04:40:14.476Z,34.87
2023-10-16T04:41:55.789Z,34.33
2023-10-16T04:43:37.162Z,34.83
2023-10-16T04:45:18.525Z,33.04
2023-10-16T04:46:59.884Z,33.47
2023-10-16T04:48:41.367Z,33.63
2023-10-16T04:50:22.794Z,33.88
2023-10-16T04:52:04.173Z,33.57
2023-10-16T04:53:45.548Z,30.89
2023-10-16T04:55:26.902Z,32.77
2023-10-16T04:57:08.244Z,33.68
2023-10-16T04:58:49.555Z,33.19
2023-10-16T05:00:30.930Z,33.96
2023-10-16T05:02:12.279Z,33.64
2023-10-16T05:03:53.645Z,33.68
2023-10-16T05:05:35.166Z,33.16
2023-10-16T05:07:16.505Z,32.87
2023-10-16T05:08:57.852Z,33.53
2023-10-16T05:10:39.202Z,32.54
2023-10-16T05:12:20.556Z,32.98
2023-10-16T05:14:01.910Z,33.21
2023-10-16T05:15:43.295Z,33.10
2023-10-16T05:17:24.721Z,32.51
2023-10-16T05:19:06.211Z,30.89
2023-10-16T05:20:47.601Z,33.35
2023-10-16T05:22:28.942Z,33.61
2023-10-16T05:24:10.316Z,33.73
2023-10-16T05:25:54.358Z,33.68
2023-10-16T05:27:36.408Z,32.90
2023-10-16T05:29:17.789Z,32.00
2023-10-16T05:30:59.151Z,32.28
2023-10-16T05:32:40.555Z,32.41
2023-10-16T05:34:21.912Z,30.28
2023-10-16T05:36:03.360Z,30.78
2023-10-16T05:37:44.746Z,32.51
2023-10-16T05:39:26.228Z,32.36
2023-10-16T05:41:07.586Z,31.35
2023-10-16T05:42:48.970Z,31.22
2023-10-16T05:44:30.366Z,31.49
2023-10-16T05:46:11.821Z,31.56
2023-10-16T05:47:53.264Z,31.13
2023-10-16T05:49:34.720Z,30.55
2023-10-16T05:51:16.041Z,30.87
2023-10-16T05:52:58.616Z,29.56
2023-10-16T05:54:41.891Z,30.39
2023-10-16T05:56:23.253Z,32.29
2023-10-16T05:58:04.592Z,31.27
2023-10-16T05:59:45.975Z,30.50
2023-10-16T06:01:27.383Z,31.87
2023-10-16T06:03:08.860Z,31.44
2023-10-16T06:04:50.426Z,32.03
2023-10-16T06:06:32.040Z,31.21
2023-10-16T06:08:13.441Z,31.66
2023-10-16T06:09:54.873Z,31.53
2023-10-16T06:11:36.273Z,31.53
2023-10-16T06:13:19.225Z,30.98
2023-10-16T06:15:00.677Z,30.71
2023-10-16T06:16:42.243Z,33.52
2023-10-16T06:18:23.654Z,35.10
2023-10-16T06:20:05.175Z,35.04
2023-10-16T06:21:48.019Z,34.70
2023-10-16T06:23:30.595Z,33.57
2023-10-16T06:25:12.025Z,32.62
2023-10-16T06:26:53.422Z,32.61
2023-10-16T06:28:34.772Z,32.94
2023-10-16T06:30:16.113Z,34.34
2023-10-16T06:31:57.457Z,33.45
2023-10-16T06:33:38.840Z,35.39
2023-10-16T06:35:20.249Z,32.21
2023-10-16T06:37:01.612Z,32.39
2023-10-16T06:38:42.983Z,31.04
2023-10-16T06:40:24.460Z,32.67
2023-10-16T06:42:05.878Z,32.35
2023-10-16T06:43:47.334Z,31.87
2023-10-16T06:45:28.871Z,32.70
2023-10-16T06:47:10.285Z,31.79
2023-10-16T06:48:51.693Z,31.82
2023-10-16T06:50:33.132Z,32.37
2023-10-16T06:52:14.461Z,32.40
2023-10-16T06:53:55.786Z,32.77
2023-10-16T06:55:37.159Z,32.06
2023-10-16T06:57:18.592Z,31.43
2023-10-16T06:58:59.966Z,30.63
2023-10-16T07:00:41.369Z,30.61
2023-10-16T07:02:22.734Z,30.26
2023-10-16T07:04:04.238Z,29.83
2023-10-16T07:05:45.723Z,29.76
2023-10-16T07:07:27.150Z,32.97
2023-10-16T07:09:08.548Z,32.43
2023-10-16T07:10:50.441Z,32.22
2023-10-16T07:12:31.877Z,33.54
2023-10-16T07:14:13.429Z,35.60
2023-10-16T07:15:54.904Z,34.40
2023-10-16T07:17:37.694Z,33.20
2023-10-16T07:19:20.372Z,33.37
2023-10-16T07:21:01.758Z,35.16
2023-10-16T07:22:43.115Z,33.25
2023-10-16T07:24:24.631Z,34.51
2023-10-16T07:26:06.102Z,34.68
2023-10-16T07:27:47.512Z,33.90
2023-10-16T07:29:28.977Z,32.83
2023-10-16T07:31:10.484Z,32.05
2023-10-16T07:32:52.052Z,31.67
2023-10-16T07:34:33.430Z,31.09
2023-10-16T07:36:14.842Z,35.01
2023-10-16T07:37:56.245Z,35.38
2023-10-16T07:39:37.697Z,34.44
2023-10-16T07:41:19.058Z,35.28
2023-10-16T07:43:00.462Z,34.96
2023-10-16T07:44:41.874Z,33.36
2023-10-16T07:46:23.207Z,33.28
2023-10-16T07:48:04.664Z,34.15
2023-10-16T07:49:46.044Z,34.46
2023-10-16T07:51:27.575Z,34.26
2023-10-16T07:53:09.013Z,33.64
2023-10-16T07:54:50.411Z,34.31
2023-10-16T07:56:31.777Z,34.56
2023-10-16T07:58:13.149Z,34.05
2023-10-16T07:59:54.517Z,36.63
2023-10-16T08:01:35.984Z,37.42
2023-10-16T08:03:17.480Z,35.67
2023-10-16T08:04:58.938Z,34.75
2023-10-16T08:06:40.453Z,35.02
2023-10-16T08:08:21.877Z,34.56
2023-10-16T08:10:03.277Z,34.83
2023-10-16T08:11:44.652Z,33.87
2023-10-16T08:13:25.997Z,33.78
2023-10-16T08:15:07.367Z,32.38
2023-10-16T08:16:48.868Z,33.92
2023-10-16T08:18:30.369Z,35.42
2023-10-16T08:20:11.802Z,34.38
2023-10-16T08:21:53.249Z,34.14
2023-10-16T08:23:34.710Z,33.43
2023-10-16T08:25:16.124Z,32.85
2023-10-16T08:26:57.476Z,32.72
2023-10-16T08:28:38.787Z,31.89
2023-10-16T08:30:20.193Z,30.87
2023-10-16T08:32:01.591Z,31.04
2023-10-16T08:33:43.021Z,30.92
2023-10-16T08:35:24.522Z,30.12
2023-10-16T08:37:05.879Z,29.38
2023-10-16T08:38:50.089Z,29.28
2023-10-16T08:40:32.766Z,28.78
2023-10-16T08:42:14.120Z,28.92
2023-10-16T08:43:55.515Z,28.42
2023-10-16T08:45:36.922Z,29.69
2023-10-16T08:47:18.271Z,27.94
2023-10-16T08:48:59.679Z,27.06
2023-10-16T08:50:41.060Z,26.54
2023-10-16T08:52:22.436Z,26.44
2023-10-16T08:54:03.808Z,26.44
2023-10-16T08:55:45.146Z,27.18
2023-10-16T08:57:26.584Z,28.78
2023-10-16T08:59:08.042Z,28.57
2023-10-16T09:00:49.475Z,29.25
2023-10-16T09:02:30.891Z,27.21
2023-10-16T09:04:12.316Z,27.15
2023-10-16T09:05:53.707Z,27.54
2023-10-16T09:07:35.076Z,27.97
2023-10-16T09:09:16.439Z,26.91
2023-10-16T09:10:57.815Z,25.81
2023-10-16T09:12:39.166Z,26.13
2023-10-16T09:14:20.724Z,25.76
2023-10-16T09:16:02.188Z,26.95
2023-10-16T09:17:43.688Z,27.41
2023-10-16T09:19:25.609Z,26.90
2023-10-16T09:21:07.107Z,26.44
2023-10-16T09:22:48.456Z,26.32
2023-10-16T09:24:29.877Z,25.08
2023-10-16T09:26:11.277Z,25.84
2023-10-16T09:27:52.638Z,23.95
2023-10-16T09:29:35.667Z,24.05
2023-10-16T09:31:17.537Z,24.84
2023-10-16T09:32:59.328Z,24.13
2023-10-16T09:34:40.992Z,23.45
2023-10-16T09:36:22.449Z,24.10
2023-10-16T09:38:03.940Z,23.60
2023-10-16T09:39:45.329Z,26.54
2023-10-16T09:41:26.752Z,24.58
2023-10-16T09:43:08.147Z,24.69
2023-10-16T09:44:49.689Z,24.78
2023-10-16T09:46:31.132Z,23.60
2023-10-16T09:48:12.670Z,23.49
2023-10-16T09:49:54.108Z,22.95
2023-10-16T09:51:35.461Z,22.83
2023-10-16T09:53:16.816Z,20.29
2023-10-16T09:54:58.284Z,20.76
2023-10-16T09:56:43.858Z,19.67
2023-10-16T09:58:26.655Z,19.86
2023-10-16T10:00:08.167Z,19.73
2023-10-16T10:01:50.485Z,19.77
2023-10-16T10:03:33.779Z,18.94
2023-10-16T10:05:15.518Z,18.30
2023-10-16T10:06:56.894Z,18.22
2023-10-16T10:08:38.309Z,18.22
2023-10-16T10:10:19.699Z,18.34
2023-10-16T10:12:01.021Z,18.41
2023-10-16T10:13:42.368Z,17.96
2023-10-16T10:15:23.725Z,15.33
2023-10-16T10:17:05.138Z,17.51
2023-10-16T10:18:46.617Z,15.68
2023-10-16T10:20:28.026Z,17.44
2023-10-16T10:22:09.428Z,16.06
2023-10-16T10:23:50.956Z,16.00
2023-10-16T10:25:32.425Z,14.81
2023-10-16T10:27:13.845Z,15.27
2023-10-16T10:28:55.190Z,14.32
2023-10-16T10:30:36.636Z,14.28
2023-10-16T10:32:18.008Z,13.67
2023-10-16T10:33:59.538Z,13.55
2023-10-16T10:35:41.107Z,13.93
2023-10-16T10:37:22.631Z,12.93
2023-10-16T10:39:04.009Z,13.65
2023-10-16T10:40:45.337Z,11.30
2023-10-16T10:42:26.761Z,11.08
2023-10-16T10:44:08.082Z,12.67
2023-10-16T10:45:49.487Z,13.41
2023-10-16T10:47:30.899Z,13.17
2023-10-16T10:49:12.279Z,13.29
2023-10-16T10:50:53.674Z,14.43
2023-10-16T10:52:35.058Z,14.10
2023-10-16T10:54:16.436Z,11.65
2023-10-16T10:55:57.824Z,12.25
2023-10-16T10:57:39.280Z,13.16
2023-10-16T10:59:20.629Z,13.96
2023-10-16T11:01:02.191Z,13.97
2023-10-16T11:02:43.700Z,13.85
2023-10-16T11:04:25.104Z,13.56
2023-10-16T11:06:06.502Z,12.14
2023-10-16T11:07:47.947Z,11.94
2023-10-16T11:09:29.470Z,12.55
2023-10-16T11:11:10.792Z,12.76
2023-10-16T11:12:52.221Z,14.89
2023-10-16T11:14:33.588Z,15.62
2023-10-16T11:16:14.961Z,13.91
2023-10-16T11:17:56.459Z,13.94
2023-10-16T11:19:37.910Z,14.95
2023-10-16T11:21:19.233Z,14.74
2023-10-16T11:23:00.663Z,14.71
2023-10-16T11:24:42.149Z,15.18
2023-10-16T11:26:23.596Z,13.69
2023-10-16T11:28:05.172Z,14.03
2023-10-16T11:29:46.555Z,14.27
2023-10-16T11:31:27.983Z,14.72
2023-10-16T11:33:09.476Z,15.42
2023-10-16T11:34:50.829Z,15.71
2023-10-16T11:36:37.546Z,15.53
2023-10-16T11:38:23.751Z,15.66
2023-10-16T11:40:05.142Z,14.66
2023-10-16T11:41:46.591Z,13.65
2023-10-16T11:43:27.951Z,13.46
2023-10-16T11:45:09.290Z,14.75
2023-10-16T11:46:51.421Z,15.06
2023-10-16T11:48:33.259Z,13.89
2023-10-16T11:50:14.643Z,13.22
2023-10-16T11:51:56.014Z,14.80
2023-10-16T11:53:37.407Z,12.97
2023-10-16T11:55:19.385Z,13.85
2023-10-16T11:57:01.032Z,13.43
2023-10-16T11:58:42.452Z,13.50
2023-10-16T12:00:23.810Z,13.80
2023-10-16T12:02:05.165Z,14.77
2023-10-16T12:03:47.753Z,13.99
2023-10-16T12:05:30.487Z,15.42
2023-10-16T12:07:11.955Z,13.92
2023-10-16T12:08:53.415Z,14.11
2023-10-16T12:10:35.564Z,13.88
2023-10-16T12:12:17.256Z,13.68
2023-10-16T12:13:58.676Z,12.87
2023-10-16T12:15:40.241Z,13.95
2023-10-16T12:17:21.726Z,13.70
2023-10-16T12:19:03.559Z,13.18
2023-10-16T12:20:45.438Z,13.56
2023-10-16T12:22:26.800Z,12.93
2023-10-16T12:24:08.231Z,12.84
2023-10-16T12:25:49.843Z,13.32
2023-10-16T12:27:31.382Z,12.71
2023-10-16T12:29:12.757Z,13.72
2023-10-16T12:30:54.202Z,13.44
2023-10-16T12:32:35.693Z,13.32
2023-10-16T12:34:17.219Z,13.32
2023-10-16T12:35:58.801Z,13.57
2023-10-16T12:37:40.174Z,14.65
2023-10-16T12:39:21.648Z,13.58
2023-10-16T12:41:03.031Z,13.18
2023-10-16T12:42:44.614Z,13.35
2023-10-16T12:44:26.444Z,14.11
2023-10-16T12:46:08.154Z,13.59
2023-10-16T12:47:51.082Z,14.54
2023-10-16T12:49:33.025Z,13.85
2023-10-16T12:51:14.389Z,14.21
2023-10-16T12:52:55.749Z,14.53
2023-10-16T12:54:37.148Z,14.22
2023-10-16T12:56:18.562Z,15.53
2023-10-16T12:58:00.013Z,15.04
2023-10-16T12:59:41.400Z,15.22
2023-10-16T13:01:22.894Z,15.88
2023-10-16T13:03:04.359Z,15.89
2023-10-16T13:04:45.814Z,15.47
2023-10-16T13:06:27.239Z,15.28
2023-10-16T13:08:08.689Z,15.26
2023-10-16T13:09:50.071Z,15.28
2023-10-16T13:11:31.536Z,14.46
2023-10-16T13:13:12.922Z,15.04
2023-10-16T13:14:54.301Z,15.13
2023-10-16T13:16:35.666Z,14.96
2023-10-16T13:18:17.005Z,14.31
2023-10-16T13:19:58.401Z,14.82
2023-10-16T13:21:39.839Z,15.03
2023-10-16T13:23:30.603Z,14.72
2023-10-16T13:25:20.644Z,14.70
2023-10-16T13:27:02.136Z,14.93
2023-10-16T13:28:44.078Z,14.80
2023-10-16T13:30:25.569Z,14.78
2023-10-16T13:32:07.191Z,15.20
2023-10-16T13:33:48.579Z,14.53
2023-10-16T13:35:29.932Z,15.53
2023-10-16T13:37:11.665Z,15.60
2023-10-16T13:38:53.444Z,15.52
2023-10-16T13:40:34.807Z,15.16
2023-10-16T13:42:16.264Z,15.29
2023-10-16T13:43:58.948Z,15.66
2023-10-16T13:45:42.344Z,15.82
2023-10-16T13:47:24.116Z,15.57
2023-10-16T13:49:05.529Z,15.39
2023-10-16T13:50:46.899Z,15.30
2023-10-16T13:52:28.271Z,15.42
2023-10-16T13:54:09.624Z,16.04
2023-10-16T13:55:51.734Z,16.70
2023-10-16T13:57:33.223Z,16.40
2023-10-16T13:59:14.586Z,15.66
2023-10-16T14:00:55.952Z,15.99
2023-10-16T14:02:37.543Z,16.47
2023-10-16T14:04:19.069Z,16.76
2023-10-16T14:06:00.462Z,16.56
2023-10-16T14:07:42.604Z,16.69
2023-10-16T14:09:24.275Z,16.58
2023-10-16T14:11:05.643Z,16.16
2023-10-16T14:12:47.156Z,16.38
2023-10-16T14:14:29.238Z,16.75
2023-10-16T14:16:11.323Z,16.38
2023-10-16T14:17:52.948Z,16.21
2023-10-16T14:19:34.377Z,16.74
2023-10-16T14:21:16.392Z,16.26
2023-10-16T14:22:58.005Z,16.38
2023-10-16T14:24:39.369Z,17.67
2023-10-16T14:26:20.727Z,17.07
2023-10-16T14:28:02.158Z,17.61
2023-10-16T14:29:43.496Z,17.63
2023-10-16T14:31:24.972Z,17.97
2023-10-16T14:33:06.414Z,18.82
2023-10-16T14:34:47.785Z,19.17
2023-10-16T14:36:29.778Z,18.98
2023-10-16T14:38:11.415Z,19.64
2023-10-16T14:39:52.807Z,20.59
2023-10-16T14:41:34.321Z,20.16
2023-10-16T14:43:15.752Z,21.26
2023-10-16T14:44:57.268Z,20.87
2023-10-16T14:46:38.852Z,21.79
2023-10-16T14:48:20.236Z,22.04
2023-10-16T14:50:01.716Z,23.21
2023-10-16T14:51:43.295Z,23.34
2023-10-16T14:53:24.846Z,23.95
2023-10-16T14:55:06.526Z,26.28
2023-10-16T14:56:47.984Z,27.31
2023-10-16T14:59:04.946Z,28.13
2023-10-16T15:00:31.096Z,28.90
2023-10-16T15:02:12.796Z,27.75
2023-10-16T15:03:57.287Z,26.84
2023-10-16T15:05:38.755Z,27.67
2023-10-16T15:07:20.248Z,28.11
2023-10-16T15:09:01.666Z,27.69
2023-10-16T15:10:49.076Z,27.99
2023-10-16T15:12:31.893Z,28.47
2023-10-16T15:14:13.359Z,28.98
2023-10-16T15:15:54.754Z,29.11
2023-10-16T15:17:36.202Z,28.38
2023-10-16T15:19:17.663Z,29.00
2023-10-16T15:20:59.179Z,30.93
2023-10-16T15:22:40.549Z,30.97
2023-10-16T15:24:21.925Z,31.63
2023-10-16T15:26:03.312Z,30.93
2023-10-16T15:27:44.723Z,31.44
2023-10-16T15:29:26.108Z,30.14
2023-10-16T15:31:07.554Z,30.21
2023-10-16T15:32:49.314Z,31.07
2023-10-16T15:34:31.029Z,30.78
2023-10-16T15:36:12.656Z,29.46
2023-10-16T15:37:54.042Z,30.21
2023-10-16T15:39:35.386Z,30.85
2023-10-16T15:41:16.829Z,31.66
2023-10-16T15:42:58.365Z,31.71
2023-10-16T15:44:39.772Z,31.29
2023-10-16T15:46:21.322Z,31.22
2023-10-16T15:48:02.794Z,31.33
2023-10-16T15:49:44.278Z,31.81
2023-10-16T15:51:25.750Z,31.39
2023-10-16T15:53:07.293Z,31.24
2023-10-16T15:54:48.710Z,29.64
2023-10-16T15:56:30.129Z,29.22
2023-10-16T15:58:11.552Z,30.51
2023-10-16T15:59:52.988Z,30.27
2023-10-16T16:01:34.382Z,30.51
2023-10-16T16:03:15.782Z,31.32
2023-10-16T16:04:57.443Z,31.37
2023-10-16T16:06:38.932Z,30.99
2023-10-16T16:08:20.348Z,31.06
2023-10-16T16:10:01.810Z,30.87
2023-10-16T16:11:43.230Z,30.95
2023-10-16T16:13:24.692Z,31.07
2023-10-16T16:15:06.037Z,31.23
2023-10-16T16:16:47.424Z,31.44
2023-10-16T16:18:28.846Z,31.05
2023-10-16T16:20:10.229Z,31.22
2023-10-16T16:21:52.338Z,31.85
2023-10-16T16:23:33.822Z,31.95
2023-10-16T16:25:15.231Z,32.24
2023-10-16T16:26:56.640Z,32.30
2023-10-16T16:28:37.998Z,32.86
2023-10-16T16:30:19.420Z,33.64
2023-10-16T16:32:01.189Z,34.27
2023-10-16T16:33:42.610Z,34.23
2023-10-16T16:35:24.017Z,33.54
2023-10-16T16:37:05.498Z,33.89
2023-10-16T16:38:46.983Z,33.55
2023-10-16T16:40:28.448Z,33.95
2023-10-16T16:42:09.832Z,33.78
2023-10-16T16:43:51.250Z,33.86
2023-10-16T16:45:32.617Z,33.74
2023-10-16T16:47:13.990Z,33.64
2023-10-16T16:48:55.350Z,33.20
2023-10-16T16:50:36.715Z,33.60
2023-10-16T16:52:18.251Z,33.51
2023-10-16T16:53:59.613Z,33.55
2023-10-16T16:55:40.991Z,33.87
2023-10-16T16:57:22.342Z,34.57
2023-10-16T16:59:03.674Z,34.02
2023-10-16T17:00:45.030Z,34.51
2023-10-16T17:02:26.443Z,33.66
2023-10-16T17:04:07.952Z,33.70
2023-10-16T17:05:49.529Z,33.97
2023-10-16T17:07:31.285Z,33.43
2023-10-16T17:09:12.962Z,34.35
2023-10-16T17:10:54.743Z,34.03
2023-10-16T17:12:36.376Z,33.75
2023-10-16T17:14:18.635Z,33.30
2023-10-16T17:16:01.082Z,33.18
2023-10-16T17:17:42.575Z,33.08
2023-10-16T17:19:24.368Z,32.86
2023-10-16T17:21:05.725Z,33.00
2023-10-16T17:23:04.405Z,33.26
2023-10-16T17:24:46.365Z,33.33
2023-10-16T17:26:27.701Z,33.75
2023-10-16T17:28:09.172Z,33.65
2023-10-16T17:29:50.737Z,33.32
2023-10-16T17:31:32.089Z,33.69
2023-10-16T17:33:13.526Z,33.85
2023-10-16T17:34:55.340Z,33.06
2023-10-16T17:36:36.820Z,33.56
2023-10-16T17:38:18.315Z,34.47
2023-10-16T17:39:59.704Z,33.71
2023-10-16T17:41:41.092Z,33.40
2023-10-16T17:43:22.840Z,33.14
2023-10-16T17:45:04.442Z,32.34
2023-10-16T17:46:45.937Z,33.75
2023-10-16T17:48:27.566Z,33.66
2023-10-16T17:50:09.019Z,35.43
2023-10-16T17:51:50.397Z,34.16
2023-10-16T17:53:31.957Z,34.24
2023-10-16T17:55:13.759Z,33.87
2023-10-16T17:56:55.274Z,34.10
2023-10-16T17:58:36.985Z,34.41
2023-10-16T18:00:18.630Z,34.27
2023-10-16T18:02:00.213Z,34.34
2023-10-16T18:03:41.953Z,34.37
2023-10-16T18:05:23.487Z,34.47
2023-10-16T18:07:04.858Z,34.36
2023-10-16T18:08:46.450Z,34.27
2023-10-16T18:10:28.104Z,34.18
2023-10-16T18:12:09.597Z,34.58
2023-10-16T18:13:50.959Z,34.06
2023-10-16T18:15:32.488Z,34.11
2023-10-16T18:17:14.061Z,33.79
2023-10-16T18:18:55.396Z,34.21
2023-10-16T18:20:37.068Z,33.39
2023-10-16T18:22:18.872Z,33.65
2023-10-16T18:24:00.537Z,33.64
2023-10-16T18:25:41.915Z,34.99
2023-10-16T18:27:23.447Z,34.94
2023-10-16T18:29:05.182Z,34.43
2023-10-16T18:30:46.670Z,34.98
2023-10-16T18:32:28.104Z,35.11
2023-10-16T18:34:09.486Z,34.70
2023-10-16T18:35:51.095Z,34.53
2023-10-16T18:37:32.455Z,34.85
2023-10-16T18:39:13.819Z,35.36
2023-10-16T18:40:55.875Z,35.50
2023-10-16T18:42:37.620Z,35.73
2023-10-16T18:44:19.085Z,35.36
2023-10-16T18:46:00.516Z,34.79
2023-10-16T18:47:41.973Z,35.04
2023-10-16T18:49:23.338Z,34.75
2023-10-16T18:51:04.706Z,34.86
2023-10-16T18:52:46.094Z,35.38
2023-10-16T18:54:28.401Z,35.16
2023-10-16T18:56:10.388Z,35.09
2023-10-16T18:57:51.848Z,34.39
2023-10-16T18:59:33.185Z,34.45
2023-10-16T19:01:14.789Z,34.94
2023-10-16T19:02:56.468Z,35.86
2023-10-16T19:04:37.900Z,35.49
2023-10-16T19:06:19.321Z,35.13
2023-10-16T19:08:00.814Z,34.98
2023-10-16T19:09:42.214Z,34.48
2023-10-16T19:11:23.564Z,35.16
2023-10-16T19:13:04.962Z,35.86
2023-10-16T19:14:46.335Z,35.26
2023-10-16T19:16:27.708Z,34.48
2023-10-16T19:18:09.186Z,35.20
2023-10-16T19:19:50.635Z,36.31
2023-10-16T19:21:32.575Z,36.51
2023-10-16T19:23:14.221Z,36.49
2023-10-16T19:24:55.714Z,35.95
2023-10-16T19:26:37.304Z,35.95
2023-10-16T19:28:18.718Z,35.72
2023-10-16T19:30:00.209Z,35.48
2023-10-16T19:31:41.694Z,34.72
2023-10-16T19:33:23.932Z,34.47
2023-10-16T19:35:05.528Z,34.67
2023-10-16T19:36:47.212Z,34.73
2023-10-16T19:38:28.717Z,34.64
2023-10-16T19:40:10.064Z,35.72
2023-10-16T19:41:51.452Z,35.53
2023-10-16T19:43:32.828Z,36.18
2023-10-16T19:45:14.452Z,37.53
2023-10-16T19:46:56.031Z,37.06
2023-10-16T19:48:38.039Z,36.39
2023-10-16T19:50:19.651Z,37.01
2023-10-16T19:52:01.219Z,36.69
2023-10-16T19:53:42.677Z,36.81
2023-10-16T19:55:24.429Z,36.23
2023-10-16T19:57:06.132Z,36.98
2023-10-16T19:58:47.629Z,37.81
2023-10-16T20:00:29.013Z,37.48
2023-10-16T20:02:10.359Z,37.87
2023-10-16T20:03:52.010Z,37.75
2023-10-16T20:05:33.805Z,37.91
2023-10-16T20:07:15.289Z,37.41
2023-10-16T20:08:56.657Z,37.59
2023-10-16T20:10:38.264Z,37.68
2023-10-16T20:12:20.179Z,37.60
2023-10-16T20:14:01.545Z,37.25
2023-10-16T20:15:42.890Z,36.33
2023-10-16T20:17:24.586Z,36.47
2023-10-16T20:19:06.254Z,37.38
2023-10-16T20:20:47.628Z,36.93
2023-10-16T20:22:29.059Z,37.36
2023-10-16T20:24:10.689Z,37.45
2023-10-16T20:25:52.263Z,38.76
2023-10-16T20:27:33.631Z,38.42
2023-10-16T20:29:14.976Z,38.10
2023-10-16T20:30:56.307Z,37.52
2023-10-16T20:32:37.706Z,38.55
2023-10-16T20:34:19.053Z,38.11
2023-10-16T20:36:01.075Z,37.89
2023-10-16T20:37:42.652Z,38.69
2023-10-16T20:39:24.097Z,37.53
2023-10-16T20:41:05.757Z,37.73
2023-10-16T20:42:47.280Z,38.09
2023-10-16T20:44:29.107Z,38.10
2023-10-16T20:46:10.983Z,39.55
2023-10-16T20:47:53.931Z,39.48
2023-10-16T20:49:35.506Z,38.74
2023-10-16T20:51:16.904Z,38.85
2023-10-16T20:52:58.273Z,38.71
2023-10-16T20:54:40.345Z,39.17
2023-10-16T20:56:22.011Z,38.42
2023-10-16T20:58:03.334Z,38.13
2023-10-16T20:59:44.699Z,37.29
2023-10-16T21:01:26.123Z,37.87
2023-10-16T21:03:07.582Z,38.25
2023-10-16T21:04:49.109Z,38.98
2023-10-16T21:06:30.598Z,39.13
2023-10-16T21:08:11.963Z,40.19
2023-10-16T21:09:53.335Z,39.33
2023-10-16T21:11:34.726Z,39.73
2023-10-16T21:13:16.071Z,38.98
2023-10-16T21:14:57.433Z,38.59
2023-10-16T21:16:38.809Z,38.90
2023-10-16T21:18:20.336Z,38.46
2023-10-16T21:20:01.860Z,38.92
2023-10-16T21:21:43.260Z,38.78
2023-10-16T21:23:24.593Z,38.83
2023-10-16T21:25:05.965Z,38.50
2023-10-16T21:26:47.391Z,38.21
2023-10-16T21:28:28.731Z,38.90
2023-10-16T21:30:10.145Z,39.86
2023-10-16T21:31:51.504Z,40.50
2023-10-16T21:33:32.953Z,41.80
2023-10-16T21:35:14.368Z,42.91
2023-10-16T21:36:55.723Z,42.37
2023-10-16T21:38:37.118Z,43.04
2023-10-16T21:40:18.796Z,41.95
2023-10-16T21:42:00.338Z,42.12
2023-10-16T21:43:41.693Z,41.27
2023-10-16T21:45:24.962Z,40.86
2023-10-16T21:47:08.156Z,41.19
2023-10-16T21:48:49.675Z,41.61